Time;durP1;ratioP1;P1;durP2;ratioP2;P2;SDS_P1;SDS_P2;PMS_P1;PMS_P2;Temp;Humidity;BMP_temperature;BMP_pressure;BME280_temperature;BME280_humidity;BME280_pressure;Samples;Min_cycle;Max_cycle;Signal;HPM_P1;HPM_P2
2022/11/19 00:03:57;;;;;;;10.27;6.03;;;;;;;10.03;100.00;99643.41;8278411;28;20617;-53
2022/11/19 00:07:58;;;;;;;9.45;6.30;;;;;;;10.02;100.00;99655.25;8296529;28;20408;-51
2022/11/19 00:13:00;;;;;;;10.55;6.78;;;;;;;10.07;100.00;99652.94;8296207;28;20589;-50
2022/11/19 00:16:20;;;;;;;11.68;7.82;;;;;;;10.06;100.00;99645.81;8294610;28;20030;-53
2022/11/19 00:20:20;;;;;;;12.70;7.93;;;;;;;10.10;100.00;99641.84;8295469;28;20046;-52
2022/11/19 00:24:21;;;;;;;12.68;7.55;;;;;;;10.09;100.00;99645.53;8295874;28;20045;-50
2022/11/19 00:28:22;;;;;;;10.18;6.63;;;;;;;10.10;100.00;99636.44;8293684;28;20070;-50
2022/11/19 00:32:23;;;;;;;16.98;5.85;;;;;;;9.93;100.00;99623.78;8275198;28;20057;-53
2022/11/19 00:36:23;;;;;;;12.25;6.55;;;;;;;9.86;100.00;99636.22;8292088;28;20041;-50
2022/11/19 00:40:24;;;;;;;8.98;6.38;;;;;;;9.81;100.00;99638.53;8294835;28;20140;-49
2022/11/19 00:44:25;;;;;;;9.82;6.85;;;;;;;9.87;100.00;99646.00;8294761;28;20496;-49
2022/11/19 00:48:25;;;;;;;9.57;7.10;;;;;;;9.82;100.00;99642.94;8293631;28;20034;-49
2022/11/19 00:52:26;;;;;;;10.70;6.43;;;;;;;9.90;100.00;99645.69;8294805;28;20441;-49
2022/11/19 00:56:27;;;;;;;12.15;6.72;;;;;;;9.91;100.00;99644.69;8291502;28;20045;-48
2022/11/19 01:00:28;;;;;;;11.50;7.15;;;;;;;9.95;100.00;99637.97;8313569;28;20049;-52
2022/11/19 01:04:28;;;;;;;13.07;7.15;;;;;;;9.98;100.00;99649.28;8293552;28;20044;-49
2022/11/19 01:08:30;;;;;;;17.00;8.77;;;;;;;9.99;100.00;99650.16;8289481;28;20034;-50
2022/11/19 01:13:33;;;;;;;10.38;7.75;;;;;;;10.03;100.00;99641.59;8293687;28;20078;-53
2022/11/19 01:16:52;;;;;;;15.07;9.50;;;;;;;10.09;100.00;99645.53;8293947;28;20033;-50
2022/11/19 01:20:53;;;;;;;10.82;7.63;;;;;;;10.16;100.00;99652.00;8293643;28;20060;-51
2022/11/19 01:24:54;;;;;;;13.55;8.32;;;;;;;10.11;100.00;99654.31;8291979;28;20095;-49
2022/11/19 01:28:55;;;;;;;11.13;7.20;;;;;;;10.09;100.00;99650.91;8308223;28;20037;-52
2022/11/19 01:32:56;;;;;;;16.30;8.63;;;;;;;10.06;100.00;99656.59;8313970;28;20061;-50
2022/11/19 01:36:57;;;;;;;17.17;9.55;;;;;;;10.06;100.00;99659.31;8291636;28;20519;-51
2022/11/19 01:40:58;;;;;;;15.02;9.10;;;;;;;10.09;100.00;99650.91;8292153;28;20041;-50
2022/11/19 01:45:03;;;;;;;16.00;9.55;;;;;;;10.06;100.00;99656.59;8292164;28;20088;-50
2022/11/19 01:49:20;;;;;;;12.02;7.97;;;;;;;10.05;100.00;99663.03;8291591;28;20526;-52
2022/11/19 01:53:24;;;;;;;14.45;7.65;;;;;;;10.10;100.00;99657.19;8293321;28;20033;-49
2022/11/19 01:57:25;;;;;;;14.55;9.40;;;;;;;10.10;100.00;99658.03;8295002;28;20033;-49
2022/11/19 02:01:31;;;;;;;16.30;8.38;;;;;;;10.00;100.00;99662.63;8313632;28;20041;-49
2022/11/19 02:05:32;;;;;;;17.60;8.63;;;;;;;9.90;100.00;99661.91;8296986;28;20398;-52
2022/11/19 02:09:33;;;;;;;13.90;9.13;;;;;;;9.84;100.00;99657.97;8292341;28;20057;-52
2022/11/19 02:13:44;;;;;;;13.00;8.27;;;;;;;9.91;100.00;99666.28;8289525;28;20052;-50
2022/11/19 02:18:16;;;;;;;14.75;9.80;;;;;;;9.97;100.00;99668.34;8274823;28;20424;-50
2022/11/19 02:22:56;;;;;;;17.65;9.95;;;;;;;9.98;100.00;99670.06;8291779;28;20046;-53
2022/11/19 02:27:36;;;;;;;18.40;9.55;;;;;;;10.10;100.00;99674.25;8292118;28;20066;-51
2022/11/19 02:31:47;;;;;;;17.08;8.90;;;;;;;10.06;100.00;99678.22;8259829;28;20117;-49
2022/11/19 02:35:57;;;;;;;17.40;9.85;;;;;;;9.91;100.00;99674.38;8274844;28;20038;-52
2022/11/19 02:40:14;;;;;;;18.25;10.20;;;;;;;9.89;100.00;99671.84;8290077;28;20060;-51
2022/11/19 02:45:01;;;;;;;16.90;10.90;;;;;;;9.96;100.00;99678.31;8291591;28;20034;-52
2022/11/19 02:48:51;;;;;;;19.45;10.38;;;;;;;9.90;100.00;99664.59;8290506;28;20083;-51
2022/11/19 02:52:53;;;;;;;22.13;12.30;;;;;;;9.94;100.00;99666.81;8290510;28;20423;-49
2022/11/19 02:56:57;;;;;;;21.13;12.13;;;;;;;9.87;100.00;99673.00;8289764;28;20071;-49
2022/11/19 03:05:26;;;;;;;25.27;13.27;;;;;;;9.93;100.00;99673.25;8290090;28;20038;-50
2022/11/19 03:09:29;;;;;;;26.25;13.95;;;;;;;9.98;100.00;99675.47;8290803;28;20505;-52
2022/11/19 03:18:28;;;;;;;25.95;12.68;;;;;;;9.90;100.00;99680.78;8290361;28;20050;-53
2022/11/19 03:22:36;;;;;;;34.28;16.20;;;;;;;9.86;100.00;99674.03;8289836;28;20511;-53
2022/11/19 03:26:45;;;;;;;32.40;16.15;;;;;;;9.74;100.00;99672.56;8291431;28;20034;-52
2022/11/19 03:30:48;;;;;;;26.27;13.38;;;;;;;9.60;100.00;99678.50;8319559;28;20037;-49
2022/11/19 03:34:55;;;;;;;18.67;11.15;;;;;;;9.44;100.00;99672.97;8296424;28;20061;-51
2022/11/19 03:39:01;;;;;;;16.63;8.82;;;;;;;9.31;100.00;99684.16;8278468;28;20124;-50
2022/11/19 03:43:06;;;;;;;9.32;5.88;;;;;;;9.05;100.00;99695.81;8264432;28;20046;-49
2022/11/19 03:47:12;;;;;;;7.90;4.35;;;;;;;8.84;100.00;99695.22;8257168;28;20042;-50
2022/11/19 03:51:23;;;;;;;5.30;4.25;;;;;;;8.69;100.00;99699.41;8265745;28;20124;-52
2022/11/19 03:55:33;;;;;;;6.97;4.07;;;;;;;8.60;100.00;99705.69;8264611;28;20386;-50
2022/11/19 03:59:34;;;;;;;5.07;3.70;;;;;;;8.51;100.00;99703.88;8294592;28;20558;-51
2022/11/19 04:03:35;;;;;;;6.10;3.88;;;;;;;8.48;100.00;99714.94;8296014;28;20399;-53
2022/11/19 04:07:35;;;;;;;5.43;3.78;;;;;;;8.41;100.00;99711.97;8301893;28;20037;-50
2022/11/19 04:11:36;;;;;;;5.97;3.80;;;;;;;8.39;100.00;99714.00;8295462;28;20049;-50
2022/11/19 04:15:37;;;;;;;8.05;4.15;;;;;;;8.27;100.00;99725.06;8296218;28;20438;-50
2022/11/19 04:19:37;;;;;;;7.43;4.90;;;;;;;8.17;100.00;99724.22;8294495;28;20137;-50
2022/11/19 04:23:38;;;;;;;6.57;4.30;;;;;;;8.12;100.00;99734.56;8295697;28;20399;-52
2022/11/19 04:27:39;;;;;;;7.80;4.50;;;;;;;8.08;100.00;99733.97;8296158;28;20040;-50
2022/11/19 04:31:39;;;;;;;9.02;6.00;;;;;;;8.07;100.00;99735.00;8296122;28;20034;-50
2022/11/19 04:35:44;;;;;;;10.93;6.22;;;;;;;8.02;100.00;99737.25;8292130;28;20034;-50
2022/11/19 04:39:44;;;;;;;12.52;6.35;;;;;;;7.98;100.00;99736.72;8294826;28;20038;-53
2022/11/19 04:43:45;;;;;;;7.47;5.45;;;;;;;7.92;100.00;99731.91;8293055;28;20042;-51
2022/11/19 04:47:46;;;;;;;10.30;5.90;;;;;;;7.94;100.00;99732.59;8294975;28;20037;-49
2022/11/19 04:51:46;;;;;;;6.93;4.95;;;;;;;7.90;100.00;99733.88;8294458;28;20083;-51
2022/11/19 04:55:47;;;;;;;9.77;5.97;;;;;;;7.88;100.00;99735.88;8294211;28;20034;-50
2022/11/19 04:59:48;;;;;;;8.90;5.78;;;;;;;7.92;100.00;99742.66;8314588;28;20069;-50
2022/11/19 05:03:49;;;;;;;9.05;6.22;;;;;;;7.92;100.00;99753.44;8309101;28;20034;-50
2022/11/19 05:07:50;;;;;;;8.40;5.88;;;;;;;7.96;100.00;99765.59;8299602;28;20030;-49
2022/11/19 05:11:51;;;;;;;4.03;2.35;;;;;;;7.99;100.00;99765.31;8293751;28;20503;-50
2022/11/19 05:15:51;;;;;;;3.20;2.90;;;;;;;7.96;100.00;99776.34;8294134;28;20038;-51
2022/11/19 05:19:52;;;;;;;5.78;4.13;;;;;;;7.94;100.00;99777.50;8293551;28;20034;-49
2022/11/19 05:23:53;;;;;;;5.93;3.10;;;;;;;7.85;100.00;99783.72;8293111;28;20038;-50
2022/11/19 05:27:53;;;;;;;6.82;3.58;;;;;;;7.81;100.00;99793.91;8294089;28;20107;-51
2022/11/19 05:31:54;;;;;;;4.03;2.50;;;;;;;7.84;100.00;99799.00;8293604;28;20034;-49
2022/11/19 05:35:55;;;;;;;2.72;2.35;;;;;;;7.64;100.00;99791.94;8293296;28;20543;-51
2022/11/19 05:39:55;;;;;;;2.70;2.30;;;;;;;7.50;100.00;99799.53;8293934;28;20037;-49
2022/11/19 05:43:56;;;;;;;2.85;2.60;;;;;;;7.33;100.00;99803.78;8291954;28;20038;-52
2022/11/19 05:47:57;;;;;;;4.80;2.80;;;;;;;7.27;100.00;99809.69;8292387;28;20038;-49
2022/11/19 05:51:58;;;;;;;3.13;2.83;;;;;;;7.25;100.00;99817.03;8293103;28;20507;-49
2022/11/19 05:55:59;;;;;;;8.13;4.25;;;;;;;7.15;100.00;99824.22;8293191;28;20042;-53
2022/11/19 05:59:59;;;;;;;4.72;3.17;;;;;;;6.95;100.00;99814.38;8313086;28;20068;-49
2022/11/19 06:04:00;;;;;;;6.03;3.83;;;;;;;6.71;100.00;99818.38;8289896;28;20124;-52
2022/11/19 06:08:01;;;;;;;6.07;3.58;;;;;;;6.62;100.00;99825.38;8293147;28;20069;-52
2022/11/19 06:12:02;;;;;;;8.35;3.38;;;;;;;6.58;100.00;99837.38;8292266;28;20034;-52
2022/11/19 06:16:03;;;;;;;6.95;3.80;;;;;;;6.53;100.00;99839.63;8285214;28;20056;-50
2022/11/19 06:20:07;;;;;;;5.28;3.67;;;;;;;6.50;100.00;99849.75;8282607;28;20046;-52
2022/11/19 06:24:08;;;;;;;5.95;4.18;;;;;;;6.45;100.00;99857.34;8275386;28;20034;-51
2022/11/19 06:28:09;;;;;;;6.57;3.85;;;;;;;6.51;100.00;99871.09;8298907;28;20155;-54
2022/11/19 06:32:10;;;;;;;9.02;4.28;;;;;;;6.47;100.00;99864.31;8291960;28;20099;-51
2022/11/19 06:36:11;;;;;;;6.35;4.68;;;;;;;6.44;100.00;99872.63;8290405;28;20052;-54
2022/11/19 06:40:12;;;;;;;8.50;5.00;;;;;;;6.45;100.00;99885.06;8281007;28;20046;-53
2022/11/19 06:44:13;;;;;;;9.75;5.05;;;;;;;6.36;100.00;99885.81;8291671;28;20038;-50
2022/11/19 06:48:14;;;;;;;9.00;6.07;;;;;;;6.31;100.00;99890.72;8291660;28;20076;-49
2022/11/19 06:52:14;;;;;;;13.07;6.75;;;;;;;6.19;100.00;99898.97;8290636;28;20037;-50
2022/11/19 06:56:15;;;;;;;13.75;8.88;;;;;;;6.02;100.00;99908.41;8290411;28;20041;-50
2022/11/19 07:00:16;;;;;;;17.25;9.60;;;;;;;5.93;100.00;99925.25;8316341;28;20048;-50
2022/11/19 07:04:17;;;;;;;14.55;9.48;;;;;;;5.90;100.00;99925.53;8301882;28;20125;-48
2022/11/19 07:08:17;;;;;;;15.85;8.90;;;;;;;5.79;100.00;99922.81;8292501;28;20030;-49
2022/11/19 07:12:18;;;;;;;17.45;10.13;;;;;;;5.77;100.00;99920.25;8291340;28;20030;-50
2022/11/19 07:16:19;;;;;;;19.20;10.70;;;;;;;5.69;100.00;99924.56;8287488;28;20700;-50
2022/11/19 07:20:19;;;;;;;23.02;10.85;;;;;;;5.68;100.00;99936.25;8290914;28;20113;-53
2022/11/19 07:24:20;;;;;;;21.13;10.75;;;;;;;5.68;100.00;99936.25;8295151;28;20117;-53
2022/11/19 07:28:21;;;;;;;18.05;10.80;;;;;;;5.71;100.00;99941.38;8296954;28;20342;-52
2022/11/19 07:32:22;;;;;;;20.98;12.57;;;;;;;5.68;100.00;99952.34;8298017;28;20044;-51
2022/11/19 07:36:22;;;;;;;23.90;12.85;;;;;;;5.60;100.00;99954.78;8292984;28;20048;-50
2022/11/19 07:40:23;;;;;;;23.23;12.40;;;;;;;5.49;100.00;99960.16;8291786;28;20369;-52
2022/11/19 07:44:24;;;;;;;22.92;12.63;;;;;;;5.47;100.00;99964.78;8294112;28;20049;-49
2022/11/19 07:48:25;;;;;;;24.33;12.20;;;;;;;5.42;100.00;99964.28;8293471;28;20614;-50
2022/11/19 07:52:26;;;;;;;24.70;12.05;;;;;;;5.40;100.00;99974.31;8279221;28;20038;-50
2022/11/19 07:56:26;;;;;;;25.90;13.75;;;;;;;5.39;100.00;99961.84;8264597;28;20173;-51
2022/11/19 08:00:27;;;;;;;25.20;13.73;;;;;;;5.43;100.00;99968.69;8300496;28;20156;-51
2022/11/19 08:04:28;;;;;;;27.05;14.27;;;;;;;5.41;100.00;99978.69;8283813;28;20038;-54
2022/11/19 08:08:30;;;;;;;25.13;13.65;;;;;;;5.42;100.00;99983.91;8273446;28;20050;-53
2022/11/19 08:12:31;;;;;;;26.50;14.60;;;;;;;5.42;100.00;99985.72;8280147;28;20038;-50
2022/11/19 08:20:53;;;;;;;31.00;15.48;;;;;;;5.43;100.00;100004.38;8293641;28;20037;-50
2022/11/19 08:24:54;;;;;;;29.42;16.27;;;;;;;5.44;100.00;100014.16;8295202;28;20038;-50
2022/11/19 08:28:54;;;;;;;29.05;16.35;;;;;;;5.39;100.00;100015.44;8310479;28;20033;-49
2022/11/19 08:32:57;;;;;;;27.58;16.45;;;;;;;5.42;100.00;100015.22;8315294;28;20045;-53
2022/11/19 08:36:57;;;;;;;35.67;18.50;;;;;;;5.34;100.00;100009.63;8295627;28;20042;-53
2022/11/19 08:45:21;;;;;;;36.30;18.83;;;;;;;5.40;100.00;100007.28;8294311;28;20034;-50
2022/11/19 08:49:22;;;;;;;37.42;20.13;;;;;;;5.27;100.00;100022.63;8295134;28;20058;-49
2022/11/19 08:53:22;;;;;;;36.20;18.65;;;;;;;5.31;100.00;100023.25;8294584;28;20041;-50
2022/11/19 08:57:23;;;;;;;38.53;19.98;;;;;;;5.28;100.00;100031.53;8292467;28;20057;-50
2022/11/19 09:01:24;;;;;;;37.70;19.10;;;;;;;5.35;100.00;100043.47;8290363;28;20046;-50
2022/11/19 09:05:25;;;;;;;44.58;21.27;;;;;;;5.42;100.00;100048.25;8294656;28;20041;-49
2022/11/19 09:09:26;;;;;;;41.53;20.58;;;;;;;5.47;100.00;100045.19;8294832;28;20413;-50
2022/11/19 09:13:27;;;;;;;42.17;21.27;;;;;;;5.45;100.00;100060.53;8293614;28;20045;-50
2022/11/19 09:17:27;;;;;;;39.33;20.45;;;;;;;5.49;100.00;100054.81;8283368;28;20512;-50
2022/11/19 09:21:28;;;;;;;36.53;19.05;;;;;;;5.58;100.00;100042.53;8287501;28;20041;-50
2022/11/19 09:25:29;;;;;;;39.15;21.02;;;;;;;5.73;100.00;100038.63;8283428;28;20054;-50
2022/11/19 09:29:30;;;;;;;40.58;20.45;;;;;;;5.67;100.00;100041.78;8294837;28;20041;-49
2022/11/19 09:33:32;;;;;;;38.40;20.52;;;;;;;5.67;100.00;100052.50;8281530;28;20412;-53
2022/11/19 09:37:34;;;;;;;40.38;20.10;;;;;;;5.66;100.00;100069.59;8289267;28;20040;-49
2022/11/19 09:46:15;;;;;;;41.30;21.33;;;;;;;5.64;100.00;100074.19;8398965;27;20387;-49
2022/11/19 09:50:21;;;;;;;42.65;20.40;;;;;;;5.66;100.00;100083.00;8395431;27;20277;-48
2022/11/19 09:54:22;;;;;;;37.17;19.45;;;;;;;5.61;100.00;100083.34;8364160;28;20045;-49
2022/11/19 09:58:31;;;;;;;34.92;19.65;;;;;;;5.64;100.00;100080.44;8377554;27;20040;-53
2022/11/19 10:02:32;;;;;;;37.50;20.27;;;;;;;5.72;100.00;100091.41;8380584;27;20061;-49
2022/11/19 10:06:48;;;;;;;36.95;19.27;;;;;;;5.79;100.00;100094.44;8391455;27;20494;-49
2022/11/19 10:11:17;;;;;;;32.92;19.00;;;;;;;5.73;100.00;100105.66;8395603;27;20040;-49
2022/11/19 10:15:57;;;;;;;33.85;17.85;;;;;;;5.63;100.00;100104.69;8397232;27;20119;-52
2022/11/19 10:20:27;;;;;;;35.38;18.42;;;;;;;5.64;100.00;100106.38;8380018;27;20082;-49
2022/11/19 10:24:41;;;;;;;32.90;17.80;;;;;;;5.63;100.00;100099.31;8395657;27;20037;-49
2022/11/19 10:28:51;;;;;;;29.92;15.57;;;;;;;5.60;100.00;100100.44;8398219;27;20063;-49
2022/11/19 10:33:00;;;;;;;33.55;17.50;;;;;;;5.64;100.00;100104.56;8385763;27;20044;-49
2022/11/19 10:37:09;;;;;;;33.55;17.30;;;;;;;5.75;100.00;100114.44;8405561;28;20056;-49
2022/11/19 10:41:20;;;;;;;28.00;16.05;;;;;;;5.74;100.00;100107.41;8412136;28;20071;-49
2022/11/19 10:45:24;;;;;;;35.25;17.42;;;;;;;5.78;100.00;100115.06;8411148;28;20187;-48
2022/11/19 10:49:24;;;;;;;28.63;15.07;;;;;;;5.68;100.00;100115.91;8411856;28;20159;-48
2022/11/19 10:53:35;;;;;;;29.02;16.25;;;;;;;5.73;100.00;100116.38;8400393;28;20126;-48
2022/11/19 10:57:35;;;;;;;32.97;16.70;;;;;;;5.73;100.00;100119.06;8360777;28;20041;-49
2022/11/19 11:01:41;;;;;;;28.63;14.18;;;;;;;5.74;100.00;100120.81;8386912;28;20059;-50
2022/11/19 11:05:54;;;;;;;27.67;15.13;;;;;;;5.70;100.00;100116.63;8371052;28;20041;-48
2022/11/19 11:09:55;;;;;;;28.95;15.77;;;;;;;5.65;100.00;100108.94;8391423;28;20043;-49
2022/11/19 11:14:59;;;;;;;25.67;14.73;;;;;;;5.63;100.00;100108.22;8389921;28;20047;-49
2022/11/19 11:18:25;;;;;;;26.67;14.87;;;;;;;5.72;100.00;100114.69;8387606;28;20094;-49
2022/11/19 11:22:27;;;;;;;25.77;14.02;;;;;;;5.73;100.00;100116.38;8388894;28;20036;-49
2022/11/19 11:26:29;;;;;;;24.75;13.82;;;;;;;5.77;100.00;100123.25;8372557;28;20134;-49
2022/11/19 11:30:30;;;;;;;28.77;13.90;;;;;;;5.73;100.00;100116.38;8386179;28;20382;-49
2022/11/19 11:34:36;;;;;;;26.55;13.98;;;;;;;5.73;100.00;100116.38;8375469;28;20052;-48
2022/11/19 11:38:41;;;;;;;23.90;13.15;;;;;;;5.74;100.00;100113.59;8357605;28;20047;-49
2022/11/19 11:42:44;;;;;;;;;;;;;;;5.72;100.00;100115.56;8356563;28;20540;-49
2022/11/19 11:46:50;;;;;;;28.13;14.32;;;;;;;5.73;100.00;100111.03;8358389;28;20282;-49
2022/11/19 11:50:50;;;;;;;23.67;13.13;;;;;;;5.80;100.00;100106.91;8375933;28;20036;-49
2022/11/19 11:55:01;;;;;;;25.13;13.70;;;;;;;5.82;100.00;100104.97;8387404;28;20685;-50
2022/11/19 11:59:23;;;;;;;27.90;14.32;;;;;;;5.91;100.00;100109.63;8373040;28;20044;-49
2022/11/19 12:03:24;;;;;;;27.02;12.93;;;;;;;5.86;100.00;100099.25;8375466;28;20114;-49
2022/11/19 12:07:51;;;;;;;23.83;12.82;;;;;;;5.94;100.00;100101.31;8389183;28;20033;-49
2022/11/19 12:12:02;;;;;;;24.17;13.05;;;;;;;5.96;100.00;100104.75;8388624;28;20032;-49
2022/11/19 12:16:20;;;;;;;25.13;13.52;;;;;;;5.94;100.00;100109.38;8386347;28;20043;-49
2022/11/19 12:20:31;;;;;;;24.38;13.55;;;;;;;5.87;100.00;100103.66;8389295;28;20036;-49
2022/11/19 12:24:48;;;;;;;21.67;13.15;;;;;;;5.86;100.00;100112.66;8385583;28;20044;-49
2022/11/19 12:29:16;;;;;;;24.30;13.27;;;;;;;5.86;100.00;100101.94;8388847;28;20033;-49
2022/11/19 12:33:32;;;;;;;26.15;12.38;;;;;;;5.89;100.00;100114.28;8378944;28;20056;-50
2022/11/19 12:38:04;;;;;;;21.45;12.40;;;;;;;5.87;99.71;100113.53;8370527;28;20503;-50
2022/11/19 12:42:25;;;;;;;22.35;12.35;;;;;;;5.85;100.00;100110.09;8377915;28;20510;-49
2022/11/19 12:46:39;;;;;;;25.30;12.77;;;;;;;5.88;100.00;100117.91;8386078;28;20045;-48
2022/11/19 12:50:49;;;;;;;;;;;;;;;5.93;100.00;100107.69;8389549;28;20094;-53
2022/11/19 12:55:08;;;;;;;25.48;12.60;;;;;;;5.86;99.91;100117.19;8360274;28;20361;-49
2022/11/19 12:59:37;;;;;;;23.55;12.10;;;;;;;5.77;99.33;100113.34;8375879;28;20075;-49
2022/11/19 13:04:10;;;;;;;24.55;14.15;;;;;;;5.76;99.10;100110.78;8373384;28;20044;-52
2022/11/19 13:12:35;;;;;;;26.45;13.70;;;;;;;5.81;100.00;100124.69;8336162;27;20395;-52
2022/11/19 13:16:36;;;;;;;23.63;12.73;;;;;;;5.81;99.41;100130.06;8347691;28;20044;-51
2022/11/19 13:20:57;;;;;;;22.63;11.88;;;;;;;5.80;99.25;100126.53;8322271;28;20042;-50
2022/11/19 13:25:04;;;;;;;22.23;11.05;;;;;;;5.86;99.58;100141.34;8319027;28;20061;-49
2022/11/19 13:29:32;;;;;;;24.92;12.80;;;;;;;5.81;98.46;100141.69;8344620;28;20030;-49
2022/11/19 13:33:42;;;;;;;26.80;12.70;;;;;;;5.84;99.17;100138.78;8351379;28;20541;-51
2022/11/19 13:37:50;;;;;;;24.80;12.13;;;;;;;5.86;97.94;100136.81;8353143;28;20037;-49
2022/11/19 13:46:22;;;;;;;20.15;12.30;;;;;;;5.87;97.90;100143.03;8331418;28;20045;-50
2022/11/19 13:50:30;;;;;;;26.50;14.00;;;;;;;5.90;99.51;100151.72;8340651;28;20076;-53
2022/11/19 13:54:35;;;;;;;30.75;14.45;;;;;;;5.94;98.74;100136.19;8333308;28;20111;-51
2022/11/19 13:58:42;;;;;;;21.15;12.90;;;;;;;6.01;99.70;100129.41;8360668;28;20033;-50
2022/11/19 14:03:15;;;;;;;25.50;14.13;;;;;;;6.01;98.92;100132.09;8362630;28;20033;-52
2022/11/19 14:07:56;;;;;;;21.33;11.50;;;;;;;5.93;97.92;100142.56;8346347;28;22579;-51
2022/11/19 14:26:45;;;;;;;27.75;15.18;;;;;;;5.84;97.62;100146.81;8422009;27;21016;-50
2022/11/19 14:30:12;;;;;;;24.38;13.85;;;;;;;5.86;99.34;100152.06;8419975;28;20040;-50
2022/11/19 14:34:25;;;;;;;29.58;14.20;;;;;;;5.82;98.44;100158.63;8419065;28;20032;-50
2022/11/19 14:38:33;;;;;;;29.70;14.73;;;;;;;5.77;98.06;100153.56;8419741;28;20089;-50
2022/11/19 14:44:07;;;;;;;28.55;14.75;;;;;;;5.76;98.58;100151.00;8400547;28;20142;-52
2022/11/19 14:46:54;;;;;;;31.60;15.05;;;;;;;5.75;98.11;100152.00;8419731;28;20054;-49
2022/11/19 14:51:06;;;;;;;28.42;15.05;;;;;;;5.80;99.68;100145.28;8391535;28;20102;-54
2022/11/19 14:55:26;;;;;;;25.52;13.60;;;;;;;5.81;99.00;100151.53;8385850;28;20185;-49
2022/11/19 14:59:34;;;;;;;23.85;13.32;;;;;;;5.74;98.93;100151.13;8371148;28;20040;-49
2022/11/19 15:03:36;;;;;;;25.13;13.27;;;;;;;5.72;97.17;100152.25;8385395;28;20401;-48
2022/11/19 15:07:41;;;;;;;24.48;13.23;;;;;;;5.70;96.89;100156.84;8385381;28;20041;-50
2022/11/19 15:11:59;;;;;;;27.30;13.73;;;;;;;5.75;97.95;100165.41;8386981;28;20036;-53
2022/11/19 15:16:09;;;;;;;22.88;12.85;;;;;;;5.70;97.59;100162.22;8388304;28;20047;-51
2022/11/19 15:25:02;;;;;;;26.25;13.13;;;;;;;5.67;97.96;100166.00;8351064;27;20861;-51
2022/11/19 15:29:40;;;;;;;23.05;13.10;;;;;;;5.70;97.90;100170.25;8343870;28;20037;-50
2022/11/19 15:38:25;;;;;;;23.92;14.50;;;;;;;5.66;98.57;100176.84;8411008;27;20499;-51
2022/11/19 15:42:31;;;;;;;23.75;12.23;;;;;;;5.72;99.78;100179.91;8401640;27;20095;-51
2022/11/19 15:46:46;;;;;;;24.25;13.55;;;;;;;5.68;100.00;100174.91;8398388;28;20506;-52
2022/11/19 15:50:48;;;;;;;25.02;13.63;;;;;;;5.61;97.30;100187.06;8400930;28;20044;-49
2022/11/19 15:54:49;;;;;;;23.50;13.05;;;;;;;5.64;97.68;100181.47;8382289;27;20454;-50
2022/11/19 15:58:51;;;;;;;24.92;12.80;;;;;;;5.64;97.32;100181.47;8380663;27;20049;-52
2022/11/19 16:02:52;;;;;;;21.98;11.88;;;;;;;5.63;98.13;100180.63;8404857;27;20034;-52
2022/11/19 16:06:54;;;;;;;24.42;12.77;;;;;;;5.65;99.14;100186.69;8403803;27;20127;-51
2022/11/19 16:19:42;;;;;;;24.05;12.43;;;;;;;5.61;97.13;100193.28;8382952;27;20036;-50
2022/11/19 16:25:00;;;;;;;23.15;12.38;;;;;;;5.61;97.26;100192.41;8388619;27;20039;-51
2022/11/19 16:28:09;;;;;;;25.38;11.82;;;;;;;5.63;98.32;100201.22;8390974;28;20499;-50
2022/11/19 16:32:16;;;;;;;21.70;12.18;;;;;;;5.62;97.46;100194.97;8398299;27;20040;-53
2022/11/19 16:36:18;;;;;;;23.33;12.55;;;;;;;5.64;97.79;100192.19;8396526;27;20604;-49
2022/11/19 16:40:21;;;;;;;22.08;12.75;;;;;;;5.65;99.08;100193.91;8410135;27;20773;-49
2022/11/19 16:44:27;;;;;;;21.65;12.35;;;;;;;5.65;97.72;100199.28;8397642;27;20101;-53
2022/11/19 16:53:01;;;;;;;20.92;11.40;;;;;;;5.61;97.44;100197.78;8408884;27;20912;-49
2022/11/19 16:57:05;;;;;;;21.55;12.10;;;;;;;5.61;97.77;100208.50;8395926;28;20036;-49
2022/11/19 17:01:05;;;;;;;22.93;13.00;;;;;;;5.57;96.02;100204.34;8386955;28;20070;-52
2022/11/19 17:05:09;;;;;;;24.13;12.73;;;;;;;5.58;96.54;100203.41;8379233;28;20064;-48
2022/11/19 17:09:44;;;;;;;22.95;12.35;;;;;;;5.62;97.01;100211.06;8380539;28;20041;-50
2022/11/19 17:13:45;;;;;;;22.95;12.82;;;;;;;5.63;96.35;100201.22;8391957;28;20042;-50
2022/11/19 17:17:45;;;;;;;22.90;12.73;;;;;;;5.61;97.85;100209.38;8413666;28;20029;-51
2022/11/19 17:21:52;;;;;;;21.80;13.05;;;;;;;5.59;98.37;100210.47;8411573;28;20051;-49
2022/11/19 17:25:57;;;;;;;23.05;12.00;;;;;;;5.56;96.93;100216.94;8412971;28;20543;-52
2022/11/19 17:34:40;;;;;;;22.00;12.38;;;;;;;5.58;96.32;100214.13;8384611;27;20386;-48
2022/11/19 17:38:41;;;;;;;26.15;13.40;;;;;;;5.56;96.50;100216.94;8377116;28;20029;-48
2022/11/19 17:44:47;;;;;;;29.73;13.95;;;;;;;5.57;95.97;100220.44;8380245;28;20459;-50
2022/11/19 17:47:14;;;;;;;26.95;14.13;;;;;;;5.59;96.29;100226.56;8372483;28;20426;-51
2022/11/19 17:51:19;;;;;;;25.13;13.93;;;;;;;5.55;97.16;100225.09;8410018;28;20036;-52
2022/11/19 17:55:23;;;;;;;26.52;14.38;;;;;;;5.55;96.91;100214.38;8373495;28;20036;-52
2022/11/19 17:59:24;;;;;;;23.83;13.70;;;;;;;5.54;97.33;100220.69;8379918;28;20048;-50
2022/11/19 18:03:24;;;;;;;23.83;13.27;;;;;;;5.51;96.87;100215.53;8378997;28;20124;-49
2022/11/19 18:07:25;;;;;;;25.00;13.55;;;;;;;5.49;97.89;100209.47;8378092;28;20029;-51
2022/11/19 18:11:26;;;;;;;24.45;14.13;;;;;;;5.51;97.55;100213.72;8379041;28;20510;-52
2022/11/19 18:15:26;;;;;;;26.67;14.18;;;;;;;5.47;96.96;100211.41;8377781;28;20152;-51
2022/11/19 18:19:27;;;;;;;25.90;14.05;;;;;;;5.48;97.91;100210.41;8378070;28;20655;-50
2022/11/19 18:23:28;;;;;;;25.30;13.20;;;;;;;5.48;98.08;100207.75;8376752;28;20052;-49
2022/11/19 18:27:29;;;;;;;26.38;13.10;;;;;;;5.48;97.34;100213.97;8378643;28;20044;-51
2022/11/19 18:31:29;;;;;;;29.10;15.10;;;;;;;5.47;98.07;100222.13;8372315;28;20625;-49
2022/11/19 18:35:31;;;;;;;27.10;14.27;;;;;;;5.46;98.03;100220.41;8366121;28;20071;-51
2022/11/19 18:39:32;;;;;;;26.25;13.65;;;;;;;5.48;97.66;100239.91;8346050;28;20041;-49
2022/11/19 18:44:33;;;;;;;27.45;14.07;;;;;;;5.46;97.98;100220.41;8334902;28;20048;-49
2022/11/19 18:47:53;;;;;;;28.40;14.45;;;;;;;5.45;98.04;100230.28;8327078;28;20074;-49
2022/11/19 18:51:55;;;;;;;29.67;15.02;;;;;;;5.48;99.74;100218.47;8352930;28;20052;-49
2022/11/19 18:55:55;;;;;;;28.80;15.82;;;;;;;5.43;98.81;100223.34;8355195;28;20037;-49
2022/11/19 18:59:56;;;;;;;29.30;16.23;;;;;;;5.46;99.17;100234.66;8352709;28;20033;-51
2022/11/19 19:03:56;;;;;;;28.88;15.48;;;;;;;5.45;98.89;100224.06;8352060;28;20133;-50
2022/11/19 19:07:57;;;;;;;32.05;15.57;;;;;;;5.46;98.27;100231.16;8355325;28;20044;-49
2022/11/19 19:12:29;;;;;;;29.60;15.30;;;;;;;5.47;99.48;100227.47;8355659;28;20131;-49
2022/11/19 19:16:18;;;;;;;31.60;16.27;;;;;;;5.46;98.96;100226.63;8355065;28;20175;-49
2022/11/19 19:20:19;;;;;;;34.25;17.13;;;;;;;5.46;99.85;100221.25;8354427;28;20480;-49
2022/11/19 19:24:20;;;;;;;32.25;17.15;;;;;;;5.47;99.07;100235.53;8355726;28;20052;-48
2022/11/19 19:28:21;;;;;;;27.40;15.65;;;;;;;5.44;98.67;100227.72;8370454;28;20051;-50
2022/11/19 19:32:22;;;;;;;33.70;17.52;;;;;;;5.47;99.64;100230.16;8354628;28;20131;-49
2022/11/19 19:36:23;;;;;;;40.08;20.65;;;;;;;5.44;99.47;100222.34;8341953;28;20175;-50
2022/11/19 19:40:24;;;;;;;33.78;16.50;;;;;;;5.42;98.83;100224.28;8350060;28;20439;-52
2022/11/19 19:44:24;;;;;;;34.78;16.90;;;;;;;5.36;98.92;100228.28;8345088;28;20068;-50
2022/11/19 19:48:25;;;;;;;34.55;17.63;;;;;;;5.38;98.48;100239.75;8340925;28;20073;-50
2022/11/19 19:52:26;;;;;;;32.10;16.95;;;;;;;5.41;98.55;100227.94;8326289;28;20119;-50
2022/11/19 19:56:29;;;;;;;41.22;19.63;;;;;;;5.35;99.48;100233.75;8337910;28;20523;-50
2022/11/19 20:00:30;;;;;;;40.03;17.63;;;;;;;5.34;99.80;100226.69;8342472;28;20570;-49
2022/11/19 20:04:31;;;;;;;40.30;18.85;;;;;;;5.31;99.77;100221.56;8353339;28;20435;-51
2022/11/19 20:08:34;;;;;;;39.45;18.20;;;;;;;5.31;100.00;100210.84;8353570;28;20138;-49